createdAt,value
2018-02-20T00:01:13.731Z,20.60
2018-02-20T00:03:41.414Z,21.95
2018-02-20T00:06:08.988Z,23.55
2018-02-20T00:08:36.474Z,26.87
2018-02-20T00:11:03.947Z,21.98
2018-02-20T00:13:31.525Z,24.08
2018-02-20T00:15:59.769Z,22.60
2018-02-20T00:18:27.222Z,22.10
2018-02-20T00:20:54.684Z,23.92
2018-02-20T00:23:26.192Z,23.95
2018-02-20T00:25:53.721Z,21.75
2018-02-20T00:28:21.169Z,25.55
2018-02-20T00:30:49.430Z,23.08
2018-02-20T00:33:16.891Z,22.62
2018-02-20T00:35:44.355Z,22.33
2018-02-20T00:38:12.608Z,22.67
2018-02-20T00:40:40.255Z,20.55
2018-02-20T00:43:07.719Z,22.10
2018-02-20T00:45:35.176Z,27.00
2018-02-20T00:48:02.669Z,26.15
2018-02-20T00:50:30.900Z,25.33
2018-02-20T00:52:58.360Z,23.98
2018-02-20T00:55:26.075Z,22.87
2018-02-20T00:57:53.544Z,25.00
2018-02-20T01:00:21.462Z,21.37
2018-02-20T01:02:48.929Z,24.80
2018-02-20T01:05:16.385Z,24.73
2018-02-20T01:07:43.888Z,24.15
2018-02-20T01:10:11.410Z,24.87
2018-02-20T01:12:39.025Z,24.23
2018-02-20T01:15:06.471Z,25.70
2018-02-20T01:17:33.931Z,22.33
2018-02-20T01:20:01.483Z,31.55
2018-02-20T01:22:28.941Z,23.48
2018-02-20T01:24:56.407Z,25.50
2018-02-20T01:27:23.864Z,26.02
2018-02-20T01:29:51.320Z,22.00
2018-02-20T01:32:18.833Z,25.60
2018-02-20T01:34:46.314Z,21.52
2018-02-20T01:37:13.759Z,23.48
2018-02-20T01:39:41.254Z,22.10
2018-02-20T01:42:09.945Z,23.55
2018-02-20T01:44:37.476Z,32.65
2018-02-20T01:47:04.955Z,20.65
2018-02-20T01:49:32.400Z,28.02
2018-02-20T01:51:59.939Z,27.92
2018-02-20T01:54:27.421Z,25.27
2018-02-20T01:56:54.877Z,25.58
2018-02-20T01:59:22.392Z,27.17
2018-02-20T02:01:50.035Z,21.83
2018-02-20T02:04:18.262Z,30.65
2018-02-20T02:06:49.745Z,24.80
2018-02-20T02:09:17.211Z,26.10
2018-02-20T02:11:44.736Z,24.17
2018-02-20T02:14:12.199Z,27.33
2018-02-20T02:16:39.638Z,25.90
2018-02-20T02:19:07.867Z,31.37
2018-02-20T02:21:35.345Z,29.92
2018-02-20T02:24:02.878Z,29.60
2018-02-20T02:26:31.131Z,28.52
2018-02-20T02:28:58.585Z,28.08
2018-02-20T02:31:26.039Z,27.08
2018-02-20T02:33:53.496Z,27.42
2018-02-20T02:36:20.981Z,31.55
2018-02-20T02:38:48.420Z,29.58
2018-02-20T02:41:15.900Z,28.00
2018-02-20T02:43:43.326Z,31.27
2018-02-20T02:46:11.600Z,38.05
2018-02-20T02:48:39.073Z,29.25
2018-02-20T02:51:06.534Z,34.80
2018-02-20T02:53:34.848Z,28.58
2018-02-20T02:56:02.299Z,31.70
2018-02-20T02:58:29.808Z,31.00
2018-02-20T03:00:58.225Z,26.52
2018-02-20T03:03:25.718Z,30.70
2018-02-20T03:05:53.176Z,30.98
2018-02-20T03:08:20.631Z,30.15
2018-02-20T03:10:48.108Z,28.77
2018-02-20T03:13:16.360Z,28.52
2018-02-20T03:15:43.849Z,36.45
2018-02-20T03:18:12.104Z,35.40
2018-02-20T03:20:39.582Z,35.75
2018-02-20T03:23:07.825Z,29.67
2018-02-20T03:25:35.286Z,29.50
2018-02-20T03:28:02.747Z,29.50
2018-02-20T03:30:30.233Z,28.05
2018-02-20T03:32:58.509Z,30.05
2018-02-20T03:35:25.943Z,31.12
2018-02-20T03:37:54.172Z,34.92
2018-02-20T03:40:21.611Z,34.15
2018-02-20T03:42:49.147Z,30.35
2018-02-20T03:45:16.598Z,30.50
2018-02-20T03:47:44.082Z,36.22
2018-02-20T03:50:11.526Z,30.50
2018-02-20T03:52:38.997Z,30.80
2018-02-20T03:55:06.435Z,32.97
2018-02-20T03:57:33.893Z,35.85
2018-02-20T04:00:01.370Z,30.92
2018-02-20T04:02:28.829Z,31.98
2018-02-20T04:04:56.287Z,32.08
2018-02-20T04:07:23.747Z,27.25
2018-02-20T04:09:51.224Z,32.47
2018-02-20T04:12:18.653Z,28.00
2018-02-20T04:14:46.117Z,31.12
2018-02-20T04:17:13.558Z,29.80
2018-02-20T04:19:41.012Z,29.33
2018-02-20T04:22:09.169Z,32.63
2018-02-20T04:24:37.060Z,31.08
2018-02-20T04:27:04.506Z,28.27
2018-02-20T04:29:32.033Z,31.20
2018-02-20T04:32:00.342Z,33.25
2018-02-20T04:34:27.789Z,30.35
2018-02-20T04:36:55.273Z,32.53
2018-02-20T04:39:22.721Z,33.83
2018-02-20T04:41:50.179Z,30.25
2018-02-20T04:44:17.616Z,31.33
2018-02-20T04:46:45.095Z,29.23
2018-02-20T04:49:12.537Z,34.20
2018-02-20T04:51:40.003Z,32.42
2018-02-20T04:54:07.443Z,29.27
2018-02-20T04:56:34.896Z,37.08
2018-02-20T04:59:03.176Z,32.03
2018-02-20T05:01:31.332Z,33.85
2018-02-20T05:03:58.787Z,33.78
2018-02-20T05:06:26.274Z,34.45
2018-02-20T05:08:53.748Z,31.17
2018-02-20T05:11:21.228Z,33.22
2018-02-20T05:13:49.439Z,33.20
2018-02-20T05:16:16.891Z,30.60
2018-02-20T05:18:44.365Z,40.97
2018-02-20T05:21:11.826Z,27.92
2018-02-20T05:23:39.296Z,37.22
2018-02-20T05:26:06.728Z,34.47
2018-02-20T05:28:34.195Z,30.67
2018-02-20T05:31:02.522Z,37.22
2018-02-20T05:33:30.028Z,35.03
2018-02-20T05:35:57.592Z,32.60
2018-02-20T05:38:26.696Z,35.40
2018-02-20T05:40:54.183Z,32.17
2018-02-20T05:43:22.421Z,33.40
2018-02-20T05:45:49.859Z,36.17
2018-02-20T05:48:17.328Z,30.60
2018-02-20T05:50:44.814Z,34.28
2018-02-20T05:53:12.239Z,38.10
2018-02-20T05:55:39.766Z,34.20
2018-02-20T05:58:08.205Z,28.75
2018-02-20T06:00:35.671Z,35.67
2018-02-20T06:03:03.158Z,35.45
2018-02-20T06:05:30.639Z,40.58
2018-02-20T06:07:58.104Z,33.13
2018-02-20T06:10:25.555Z,33.03
2018-02-20T06:12:52.998Z,29.73
2018-02-20T06:15:20.485Z,37.40
2018-02-20T06:17:48.028Z,32.05
2018-02-20T06:20:15.490Z,31.90
2018-02-20T06:22:43.747Z,36.92
2018-02-20T06:25:11.200Z,33.28
2018-02-20T06:27:38.654Z,36.25
2018-02-20T06:30:06.109Z,37.30
2018-02-20T06:32:33.631Z,40.05
2018-02-20T06:35:01.903Z,38.05
2018-02-20T06:37:29.357Z,38.25
2018-02-20T06:39:56.818Z,31.95
2018-02-20T06:42:24.294Z,36.25
2018-02-20T06:44:52.509Z,39.10
2018-02-20T06:47:20.764Z,35.85
2018-02-20T06:49:48.268Z,34.63
2018-02-20T06:52:15.744Z,33.28
2018-02-20T06:54:43.178Z,38.33
2018-02-20T06:57:10.652Z,36.58
2018-02-20T06:59:38.865Z,33.60
2018-02-20T07:02:06.338Z,36.85
2018-02-20T07:04:33.828Z,51.53
2018-02-20T07:07:02.060Z,34.78
2018-02-20T07:09:29.579Z,35.05
2018-02-20T07:11:57.056Z,35.97
2018-02-20T07:14:24.509Z,37.55
2018-02-20T07:16:51.952Z,37.35
2018-02-20T07:19:19.450Z,33.50
2018-02-20T07:21:47.715Z,40.17
2018-02-20T07:24:15.227Z,32.85
2018-02-20T07:26:43.436Z,33.92
2018-02-20T07:29:10.927Z,39.80
2018-02-20T07:31:38.408Z,31.90
2018-02-20T07:34:05.885Z,35.30
2018-02-20T07:36:33.353Z,38.13
2018-02-20T07:39:00.800Z,34.20
2018-02-20T07:41:28.290Z,30.35
2018-02-20T07:43:56.564Z,33.58
2018-02-20T07:46:24.720Z,32.42
2018-02-20T07:48:52.176Z,39.83
2018-02-20T07:51:19.633Z,37.42
2018-02-20T07:53:47.094Z,31.20
2018-02-20T07:56:14.548Z,35.83
2018-02-20T07:58:42.009Z,37.28
2018-02-20T08:01:09.476Z,34.72
2018-02-20T08:03:36.931Z,34.47
2018-02-20T08:06:04.392Z,33.83
2018-02-20T08:08:31.902Z,30.23
2018-02-20T08:11:00.144Z,34.83
2018-02-20T08:13:27.641Z,37.58
2018-02-20T08:15:55.873Z,32.70
2018-02-20T08:18:23.360Z,35.22
2018-02-20T08:20:51.587Z,34.38
2018-02-20T08:23:19.110Z,42.95
2018-02-20T08:25:46.600Z,36.67
2018-02-20T08:28:14.064Z,38.47
2018-02-20T08:30:41.513Z,37.83
2018-02-20T08:33:08.971Z,34.63
2018-02-20T08:35:36.407Z,39.70
2018-02-20T08:38:04.187Z,35.60
2018-02-20T08:40:31.630Z,35.50
2018-02-20T08:42:59.109Z,29.40
2018-02-20T08:45:26.548Z,32.53
2018-02-20T08:47:54.137Z,30.83
2018-02-20T08:50:21.619Z,35.72
2018-02-20T08:52:49.837Z,32.75
2018-02-20T08:55:17.315Z,32.78
2018-02-20T08:57:44.789Z,35.88
2018-02-20T09:00:13.047Z,30.02
2018-02-20T09:02:40.494Z,38.78
2018-02-20T09:05:07.970Z,40.22
2018-02-20T09:07:35.419Z,33.30
2018-02-20T09:10:02.881Z,35.92
2018-02-20T09:12:30.352Z,34.35
2018-02-20T09:14:57.939Z,33.25
2018-02-20T09:17:25.406Z,33.25
2018-02-20T09:19:52.879Z,34.70
2018-02-20T09:22:20.326Z,31.77
2018-02-20T09:24:47.791Z,35.90
2018-02-20T09:27:15.279Z,44.53
2018-02-20T09:29:43.517Z,40.90
2018-02-20T09:32:10.957Z,33.28
2018-02-20T09:34:38.405Z,31.27
2018-02-20T09:37:05.889Z,30.80
2018-02-20T09:39:33.343Z,38.38
2018-02-20T09:42:04.968Z,32.67
2018-02-20T09:44:32.406Z,34.13
2018-02-20T09:46:59.918Z,36.97
2018-02-20T09:49:27.840Z,34.38
2018-02-20T09:51:56.061Z,30.10
2018-02-20T09:54:23.498Z,33.33
2018-02-20T09:56:50.972Z,29.45
2018-02-20T09:59:18.420Z,28.80
2018-02-20T10:01:45.890Z,30.65
2018-02-20T10:04:13.356Z,33.05
2018-02-20T10:06:40.978Z,28.58
2018-02-20T10:09:08.471Z,29.92
2018-02-20T10:11:35.921Z,29.17
2018-02-20T10:14:03.378Z,31.17
2018-02-20T10:16:30.820Z,31.52
2018-02-20T10:18:58.295Z,32.35
2018-02-20T10:21:25.745Z,30.15
2018-02-20T10:23:53.215Z,32.83
2018-02-20T10:26:21.439Z,29.48
2018-02-20T10:28:48.901Z,29.05
2018-02-20T10:31:16.354Z,25.90
2018-02-20T10:33:43.824Z,31.27
2018-02-20T10:36:11.277Z,32.30
2018-02-20T10:38:38.778Z,31.20
2018-02-20T10:41:07.052Z,32.80
2018-02-20T10:43:36.038Z,33.72
2018-02-20T10:46:03.565Z,31.65
2018-02-20T10:48:31.011Z,31.35
2018-02-20T10:50:58.496Z,38.58
2018-02-20T10:53:25.982Z,34.83
2018-02-20T10:55:54.203Z,33.42
2018-02-20T10:58:21.668Z,33.58
2018-02-20T11:00:49.136Z,34.70
2018-02-20T11:03:16.598Z,32.33
2018-02-20T11:05:44.080Z,42.08
2018-02-20T11:08:12.284Z,40.05
2018-02-20T11:10:39.750Z,38.00
2018-02-20T11:13:07.216Z,33.45
2018-02-20T11:15:34.759Z,36.15
2018-02-20T11:18:02.207Z,34.67
2018-02-20T11:20:29.671Z,34.88
2018-02-20T11:22:57.148Z,36.25
2018-02-20T11:25:24.610Z,29.67
2018-02-20T11:27:52.078Z,35.80
2018-02-20T11:30:19.520Z,37.85
2018-02-20T11:32:46.989Z,33.78
2018-02-20T11:35:14.511Z,33.63
2018-02-20T11:37:42.077Z,36.63
2018-02-20T11:40:09.539Z,35.97
2018-02-20T11:42:37.000Z,37.20
2018-02-20T11:45:04.464Z,34.45
2018-02-20T11:47:31.928Z,32.55
2018-02-20T11:49:59.372Z,38.85
2018-02-20T11:52:26.824Z,30.80
2018-02-20T11:54:54.286Z,37.05
2018-02-20T11:57:22.522Z,35.58
2018-02-20T11:59:49.963Z,37.28
2018-02-20T12:02:17.435Z,29.85
2018-02-20T12:04:44.883Z,32.28
2018-02-20T12:07:12.388Z,31.92
2018-02-20T12:09:39.846Z,32.00
2018-02-20T12:12:07.323Z,33.10
2018-02-20T12:14:34.821Z,36.88
2018-02-20T12:17:02.284Z,35.22
2018-02-20T12:19:29.747Z,30.20
2018-02-20T12:21:57.181Z,27.87
2018-02-20T12:24:24.641Z,30.75
2018-02-20T12:26:52.087Z,26.30
2018-02-20T12:29:19.655Z,26.92
2018-02-20T12:31:47.098Z,28.30
2018-02-20T12:34:14.573Z,24.70
2018-02-20T12:36:42.048Z,25.90
2018-02-20T12:39:10.315Z,27.02
2018-02-20T12:41:37.868Z,24.12
2018-02-20T12:44:05.427Z,20.10
2018-02-20T12:46:32.855Z,27.98
2018-02-20T12:49:00.316Z,24.48
2018-02-20T12:51:27.770Z,25.73
2018-02-20T12:53:55.235Z,26.17
2018-02-20T12:56:22.674Z,29.05
2018-02-20T12:58:50.133Z,25.83
2018-02-20T13:01:17.608Z,24.55
2018-02-20T13:03:45.046Z,28.62
2018-02-20T13:06:12.533Z,24.30
2018-02-20T13:08:39.978Z,28.15
2018-02-20T13:11:07.441Z,26.90
2018-02-20T13:13:34.912Z,28.08
2018-02-20T13:16:02.355Z,28.62
2018-02-20T13:18:29.867Z,29.00
2018-02-20T13:20:58.191Z,34.78
2018-02-20T13:23:25.626Z,29.87
2018-02-20T13:25:53.087Z,29.95
2018-02-20T13:28:20.535Z,29.87
2018-02-20T13:30:48.013Z,27.85
2018-02-20T13:33:15.463Z,36.05
2018-02-20T13:35:43.003Z,41.08
2018-02-20T13:38:10.432Z,36.65
2018-02-20T13:40:38.658Z,37.53
2018-02-20T13:43:06.108Z,34.97
2018-02-20T13:45:33.565Z,37.45
2018-02-20T13:48:01.045Z,35.38
2018-02-20T13:50:28.468Z,35.55
2018-02-20T13:52:55.939Z,36.53
2018-02-20T13:55:23.384Z,35.47
2018-02-20T13:57:50.872Z,32.38
2018-02-20T14:00:18.334Z,34.88
2018-02-20T14:02:45.808Z,40.17
2018-02-20T14:05:13.242Z,31.62
2018-02-20T14:07:40.706Z,35.05
2018-02-20T14:10:08.140Z,33.83
2018-02-20T14:12:35.709Z,32.28
2018-02-20T14:15:03.155Z,32.92
2018-02-20T14:17:30.600Z,30.25
2018-02-20T14:19:58.082Z,29.52
2018-02-20T14:22:25.525Z,37.95
2018-02-20T14:24:52.983Z,34.53
2018-02-20T14:27:20.431Z,41.47
2018-02-20T14:29:47.943Z,39.85
2018-02-20T14:32:16.153Z,34.50
2018-02-20T14:34:43.595Z,40.33
2018-02-20T14:37:11.055Z,37.95
2018-02-20T14:39:38.540Z,30.75
2018-02-20T14:42:06.006Z,35.65
2018-02-20T14:44:33.471Z,29.65
2018-02-20T14:47:01.695Z,36.90
2018-02-20T14:49:29.164Z,40.67
2018-02-20T14:51:56.617Z,35.78
2018-02-20T14:54:24.077Z,35.65
2018-02-20T14:56:51.547Z,38.03
2018-02-20T14:59:18.999Z,40.00
2018-02-20T15:01:46.480Z,43.03
2018-02-20T15:04:13.952Z,43.08
2018-02-20T15:06:41.513Z,41.20
2018-02-20T15:09:09.836Z,40.67
2018-02-20T15:11:37.301Z,42.05
2018-02-20T15:14:04.743Z,42.62
2018-02-20T15:16:32.191Z,42.70
2018-02-20T15:18:59.658Z,40.00
2018-02-20T15:21:27.133Z,42.17
2018-02-20T15:23:54.576Z,45.55
2018-02-20T15:26:22.085Z,44.28
2018-02-20T15:28:49.519Z,44.05
2018-02-20T15:31:16.984Z,40.45
2018-02-20T15:33:44.425Z,40.35
2018-02-20T15:36:11.886Z,42.90
2018-02-20T15:38:39.333Z,38.65
2018-02-20T15:41:06.767Z,40.30
2018-02-20T15:43:34.226Z,41.47
2018-02-20T15:46:01.773Z,42.83
2018-02-20T15:48:29.243Z,40.70
2018-02-20T15:50:56.672Z,41.95
2018-02-20T15:53:24.152Z,45.50
2018-02-20T15:55:51.608Z,46.20
2018-02-20T15:58:19.075Z,49.10
2018-02-20T16:00:46.531Z,42.67
2018-02-20T16:03:14.002Z,43.70
2018-02-20T16:05:42.961Z,50.38
2018-02-20T16:08:10.427Z,46.10
2018-02-20T16:10:37.887Z,43.45
2018-02-20T16:13:05.348Z,47.40
2018-02-20T16:15:44.657Z,44.05
2018-02-20T16:18:12.144Z,45.00
2018-02-20T16:20:40.381Z,46.97
2018-02-20T16:23:07.851Z,49.17
2018-02-20T16:25:35.336Z,48.47
2018-02-20T16:28:02.799Z,46.58
2018-02-20T16:30:30.301Z,50.65
2018-02-20T16:32:57.775Z,52.20
2018-02-20T16:35:25.245Z,48.72
2018-02-20T16:37:52.703Z,43.85
2018-02-20T16:40:20.282Z,45.55
2018-02-20T16:42:47.737Z,51.03
2018-02-20T16:45:15.192Z,39.65
2018-02-20T16:47:42.636Z,46.75
2018-02-20T16:50:10.115Z,45.85
2018-02-20T16:52:37.672Z,50.65
2018-02-20T16:55:05.193Z,51.45
2018-02-20T16:57:32.652Z,52.03
2018-02-20T17:00:00.148Z,48.03
2018-02-20T17:02:27.648Z,45.03
2018-02-20T17:04:55.097Z,47.60
2018-02-20T17:07:22.587Z,52.47
2018-02-20T17:09:50.030Z,45.17
2018-02-20T17:12:17.554Z,51.33
2018-02-20T17:14:45.915Z,43.97
2018-02-20T17:17:14.220Z,50.08
2018-02-20T17:19:41.668Z,47.78
2018-02-20T17:22:09.160Z,48.95
2018-02-20T17:24:36.697Z,47.85
2018-02-20T17:27:04.380Z,45.58
2018-02-20T17:29:31.885Z,42.40
2018-02-20T17:32:00.098Z,52.03
2018-02-20T17:34:27.544Z,43.33
2018-02-20T17:36:54.999Z,45.35
2018-02-20T17:39:22.470Z,44.25
2018-02-20T17:41:49.925Z,50.25
2018-02-20T17:44:17.395Z,50.40
2018-02-20T17:46:44.843Z,40.92
2018-02-20T17:49:12.356Z,43.20
2018-02-20T17:51:40.579Z,41.17
2018-02-20T17:54:08.141Z,44.72
2018-02-20T17:56:35.603Z,46.42
2018-02-20T17:59:03.079Z,42.17
2018-02-20T18:01:30.532Z,49.95
2018-02-20T18:03:57.992Z,46.05
2018-02-20T18:06:25.441Z,43.30
2018-02-20T18:08:52.899Z,42.58
2018-02-20T18:11:20.357Z,40.08
2018-02-20T18:13:47.834Z,46.78
2018-02-20T18:16:15.286Z,44.15
2018-02-20T18:18:42.772Z,54.90
2018-02-20T18:21:10.976Z,49.85
2018-02-20T18:23:38.520Z,41.53
2018-02-20T18:26:05.979Z,48.65
2018-02-20T18:28:33.452Z,43.20
2018-02-20T18:31:00.933Z,56.58
2018-02-20T18:33:28.444Z,46.15
2018-02-20T18:35:55.908Z,45.03
2018-02-20T18:38:23.358Z,45.22
2018-02-20T18:40:50.822Z,46.03
2018-02-20T18:43:18.339Z,49.53
2018-02-20T18:45:46.578Z,50.90
2018-02-20T18:48:14.036Z,52.75
2018-02-20T18:50:41.489Z,45.70
2018-02-20T18:53:08.948Z,48.55
2018-02-20T18:55:37.227Z,45.15
2018-02-20T18:58:04.679Z,43.67
2018-02-20T19:00:32.357Z,47.35
2018-02-20T19:02:59.810Z,50.33
2018-02-20T19:05:27.298Z,47.05
2018-02-20T19:07:55.508Z,46.85
2018-02-20T19:10:23.009Z,44.25
2018-02-20T19:12:50.501Z,46.35
2018-02-20T19:15:17.947Z,43.53
2018-02-20T19:17:45.427Z,42.08
2018-02-20T19:20:12.934Z,41.90
2018-02-20T19:22:42.136Z,43.15
2018-02-20T19:25:10.404Z,42.78
2018-02-20T19:27:38.827Z,41.15
2018-02-20T19:30:06.443Z,42.13
2018-02-20T19:32:33.945Z,45.42
2018-02-20T19:35:01.409Z,38.17
2018-02-20T19:37:28.934Z,50.75
2018-02-20T19:40:00.716Z,41.00
2018-02-20T19:42:28.194Z,39.65
2018-02-20T19:44:55.651Z,47.33
2018-02-20T19:47:23.179Z,42.90
2018-02-20T19:49:50.624Z,44.13
2018-02-20T19:52:18.106Z,42.45
2018-02-20T19:54:45.630Z,44.38
2018-02-20T19:57:13.112Z,46.22
2018-02-20T19:59:40.654Z,43.53
2018-02-20T20:02:08.129Z,45.83
2018-02-20T20:04:35.758Z,46.72
2018-02-20T20:07:03.975Z,45.58
2018-02-20T20:09:31.451Z,49.47
2018-02-20T20:11:58.953Z,47.47
2018-02-20T20:14:26.422Z,46.92
2018-02-20T20:16:54.037Z,50.83
2018-02-20T20:19:21.503Z,49.70
2018-02-20T20:21:48.954Z,44.38
2018-02-20T20:24:17.185Z,50.53
2018-02-20T20:26:44.693Z,52.45
2018-02-20T20:29:12.891Z,49.17
2018-02-20T20:31:40.381Z,51.08
2018-02-20T20:34:07.814Z,48.22
2018-02-20T20:36:35.298Z,56.92
2018-02-20T20:39:02.782Z,44.35
2018-02-20T20:41:30.247Z,48.15
2018-02-20T20:43:59.830Z,44.72
2018-02-20T20:46:27.331Z,47.20
2018-02-20T20:48:55.760Z,48.60
2018-02-20T20:51:23.201Z,54.15
2018-02-20T20:53:50.759Z,52.03
2018-02-20T20:56:18.237Z,54.53
2018-02-20T20:58:45.777Z,52.35
2018-02-20T21:01:13.235Z,52.00
2018-02-20T21:03:40.702Z,47.20
2018-02-20T21:06:08.147Z,52.92
2018-02-20T21:08:35.768Z,54.63
2018-02-20T21:11:03.237Z,52.97
2018-02-20T21:13:30.694Z,58.42
2018-02-20T21:15:58.267Z,57.70
2018-02-20T21:18:25.745Z,60.45
2018-02-20T21:20:54.076Z,55.83
2018-02-20T21:23:21.504Z,63.08
2018-02-20T21:25:49.738Z,63.65
2018-02-20T21:28:17.179Z,59.80
2018-02-20T21:30:44.704Z,55.72
2018-02-20T21:33:12.168Z,56.05
2018-02-20T21:35:39.713Z,55.95
2018-02-20T21:38:07.944Z,63.28
2018-02-20T21:40:36.185Z,51.42
2018-02-20T21:43:03.678Z,62.60
2018-02-20T21:45:31.139Z,63.10
2018-02-20T21:47:58.592Z,54.72
2018-02-20T21:50:26.167Z,62.03
2018-02-20T21:52:54.426Z,60.40
2018-02-20T21:55:21.875Z,61.50
2018-02-20T21:57:49.384Z,56.42
2018-02-20T22:00:16.878Z,67.22
2018-02-20T22:02:44.464Z,62.20
2018-02-20T22:05:11.935Z,58.70
2018-02-20T22:07:43.411Z,59.15
2018-02-20T22:10:10.930Z,60.47
2018-02-20T22:12:38.446Z,61.08
2018-02-20T22:15:05.925Z,61.55
2018-02-20T22:17:33.454Z,57.42
2018-02-20T22:20:00.916Z,62.65
2018-02-20T22:22:28.478Z,60.50
2018-02-20T22:24:55.937Z,67.12
2018-02-20T22:27:23.386Z,58.03
2018-02-20T22:29:50.865Z,63.78
2018-02-20T22:32:19.090Z,62.17
2018-02-20T22:34:47.321Z,67.62
2018-02-20T22:37:14.855Z,59.28
2018-02-20T22:39:42.390Z,64.75
2018-02-20T22:42:10.075Z,68.35
2018-02-20T22:44:37.813Z,70.87
2018-02-20T22:47:05.323Z,69.10
2018-02-20T22:49:33.643Z,66.62
2018-02-20T22:52:05.420Z,64.03
2018-02-20T22:54:32.959Z,63.35
2018-02-20T22:57:00.409Z,60.92
2018-02-20T22:59:28.009Z,66.93
2018-02-20T23:01:55.539Z,62.80
2018-02-20T23:04:23.276Z,66.93
2018-02-20T23:06:50.782Z,68.00
2018-02-20T23:09:18.412Z,77.35
2018-02-20T23:11:48.148Z,68.65
2018-02-20T23:14:15.794Z,65.50
2018-02-20T23:16:43.295Z,65.03
2018-02-20T23:19:11.103Z,73.45
2018-02-20T23:21:38.696Z,69.82
2018-02-20T23:24:06.915Z,66.72
2018-02-20T23:26:35.169Z,66.10
2018-02-20T23:29:02.700Z,73.70
2018-02-20T23:31:30.244Z,77.60
2018-02-20T23:33:57.690Z,76.95
2018-02-20T23:36:25.156Z,77.20
2018-02-20T23:38:52.608Z,84.55
2018-02-20T23:41:20.099Z,73.97
2018-02-20T23:43:47.557Z,77.87
2018-02-20T23:46:15.138Z,65.20
2018-02-20T23:48:42.715Z,79.20
2018-02-20T23:51:16.144Z,70.15
2018-02-20T23:53:46.065Z,76.72
2018-02-20T23:56:13.528Z,77.25
2018-02-20T23:58:41.010Z,77.95
